Time;durP1;ratioP1;P1;durP2;ratioP2;P2;SDS_P1;SDS_P2;PMS_P1;PMS_P2;Temp;Humidity;BMP_temperature;BMP_pressure;BME280_temperature;BME280_humidity;BME280_pressure;Samples;Min_cycle;Max_cycle;Signal;HPM_P1;HPM_P2
2022/08/18 00:04:55;;;;;;;4.03;3.30;;;23.50;62.30;;;22.41;50.51;99633.34;10281267;28;97304;-81
2022/08/18 00:10:01;;;;;;;5.22;3.40;;;23.50;62.60;;;22.41;50.92;99629.81;10282194;28;97904;-82
2022/08/18 00:15:08;;;;;;;4.20;3.28;;;23.50;63.00;;;22.41;51.04;99617.09;10264747;28;97311;-82
2022/08/18 00:20:16;;;;;;;6.78;3.47;;;23.50;63.20;;;22.39;51.35;99619.25;10281804;28;98868;-81
2022/08/18 00:25:19;;;;;;;5.93;4.18;;;23.40;63.60;;;22.36;51.92;99621.66;10284854;28;96952;-82
2022/08/18 00:30:23;;;;;;;3.90;3.50;;;23.40;64.10;;;22.31;51.99;99616.22;10286331;28;96827;-82
2022/08/18 00:35:35;;;;;;;5.88;3.97;;;23.40;64.30;;;22.24;52.79;99615.63;10258119;28;96762;-82
2022/08/18 00:40:44;;;;;;;6.95;4.28;;;23.30;64.80;;;22.20;52.88;99623.44;10268401;28;98628;-82
2022/08/18 00:45:47;;;;;;;9.47;3.80;;;23.30;65.30;;;22.13;53.84;99623.66;10273686;28;96935;-82
2022/08/18 00:51:02;;;;;;;5.53;4.68;;;23.20;65.80;;;22.06;54.22;99620.31;10273086;28;98141;-82
2022/08/18 00:56:21;;;;;;;6.75;4.00;;;23.10;66.30;;;22.01;54.70;99623.00;10258655;28;97016;-82
2022/08/18 01:01:29;;;;;;;6.20;4.32;;;23.10;66.80;;;21.93;54.96;99626.13;10279954;28;98874;-82
2022/08/18 01:06:44;;;;;;;6.05;4.07;;;23.00;67.30;;;21.83;55.65;99636.84;10263395;28;96668;-81
2022/08/18 01:11:50;;;;;;;7.10;4.35;;;22.90;67.90;;;21.72;55.96;99629.72;10291681;28;97134;-81
2022/08/18 01:22:33;;;;;;;7.60;4.72;;;22.70;69.10;;;21.56;57.66;99642.25;10285690;28;96698;-82
2022/08/18 01:27:36;;;;;;;5.97;4.63;;;22.60;69.90;;;21.48;58.02;99646.25;10282107;28;97979;-82
2022/08/18 01:32:40;;;;;;;6.45;5.13;;;22.60;70.50;;;21.43;58.23;99654.28;10273713;28;98320;-82
2022/08/18 01:37:43;;;;;;;6.13;5.00;;;22.50;71.10;;;21.37;59.09;99647.19;10256555;28;97551;-81
2022/08/18 01:42:46;;;;;;;6.32;5.47;;;22.50;71.80;;;21.32;59.86;99664.13;10266512;28;97633;-82
2022/08/18 01:47:50;;;;;;;8.27;5.70;;;22.40;72.40;;;21.26;60.55;99661.59;10288526;28;97824;-82
2022/08/18 01:52:53;;;;;;;6.03;5.40;;;22.40;72.80;;;21.22;60.80;99660.47;10263833;28;96942;-82
2022/08/18 01:57:55;;;;;;;7.82;6.15;;;22.30;73.50;;;21.18;60.84;99656.66;10272295;28;96990;-81
2022/08/18 02:03:00;;;;;;;7.97;4.93;;;22.30;73.80;;;21.16;61.03;99656.06;10277195;28;96959;-81
2022/08/18 02:08:06;;;;;;;6.15;5.25;;;22.30;74.20;;;21.09;61.67;99651.66;10262593;28;98883;-81
2022/08/18 02:13:09;;;;;;;6.80;5.65;;;22.20;74.80;;;21.08;62.08;99662.72;10286896;28;97345;-81
2022/08/18 02:18:19;;;;;;;9.68;6.90;;;22.10;75.30;;;21.10;62.77;99683.00;10269618;28;98562;-81
2022/08/18 02:23:44;;;;;;;8.67;5.73;;;22.20;76.20;;;21.14;63.09;99664.41;10264920;28;98345;-81
2022/08/18 02:28:56;;;;;;;6.72;5.15;;;22.30;76.30;;;21.16;62.71;99656.06;10272841;28;96886;-81
2022/08/18 02:33:59;;;;;;;5.85;4.78;;;22.30;76.20;;;21.07;62.27;99656.50;10248297;28;98276;-81
2022/08/18 02:39:02;;;;;;;6.50;5.68;;;22.20;76.20;;;20.99;62.46;99667.75;10288616;28;98128;-81
2022/08/18 02:44:07;;;;;;;9.15;6.57;;;22.10;76.80;;;20.98;63.33;99676.06;10271444;28;98593;-81
2022/08/18 02:49:11;;;;;;;8.65;6.72;;;22.10;77.70;;;20.99;64.05;99673.16;10275369;28;97529;-81
2022/08/18 02:54:15;;;;;;;10.52;7.35;;;22.10;78.60;;;20.97;64.51;99677.97;10248735;28;97155;-82
2022/08/18 02:59:26;;;;;;;8.57;6.90;;;22.10;79.40;;;20.97;65.04;99672.56;10287937;28;97168;-82
2022/08/18 03:04:30;;;;;;;7.55;6.53;;;22.10;79.80;;;20.91;65.18;99676.25;10278363;28;97512;-81
2022/08/18 03:09:34;;;;;;;9.15;6.93;;;22.00;80.30;;;20.82;65.48;99683.97;10263412;28;97576;-82
2022/08/18 03:14:38;;;;;;;8.63;5.95;;;21.90;80.90;;;20.77;65.50;99683.06;10272315;28;97604;-82
2022/08/18 03:19:43;;;;;;;7.25;6.55;;;21.90;81.50;;;20.68;65.90;99679.13;10289424;28;96854;-82
2022/08/18 03:24:49;;;;;;;11.80;7.45;;;21.80;82.10;;;20.64;66.18;99691.50;10263033;28;98390;-81
2022/08/18 03:29:52;;;;;;;11.88;8.27;;;21.80;83.30;;;20.65;67.58;99695.84;10266166;28;99795;-81
2022/08/18 03:34:55;;;;;;;9.70;8.05;;;21.70;84.60;;;20.69;68.00;99702.38;10286706;28;97332;-81
2022/08/18 03:39:58;;;;;;;16.77;8.50;;;21.80;85.80;;;20.71;68.38;99705.66;10268870;28;97035;-82
2022/08/18 03:45:01;;;;;;;10.77;8.45;;;21.80;86.60;;;20.76;68.29;99711.13;10243408;28;97416;-83
2022/08/18 03:50:19;;;;;;;13.48;9.18;;;21.90;87.50;;;20.78;68.42;99722.50;10266779;28;97152;-81
2022/08/18 03:55:22;;;;;;;11.55;8.95;;;21.90;88.30;;;20.79;68.96;99708.75;10275738;28;98935;-82
2022/08/18 04:00:26;;;;;;;7.75;6.70;;;21.90;89.00;;;20.76;68.64;99692.25;10263500;28;97973;-82
2022/08/18 04:05:29;;;;;;;11.70;7.80;;;21.90;88.90;;;20.73;67.94;99687.31;10279603;28;99421;-82
2022/08/18 04:10:34;;;;;;;8.40;7.50;;;21.90;88.50;;;20.70;67.67;99693.22;10269051;28;97698;-82
2022/08/18 04:15:37;;;;;;;10.40;8.23;;;21.90;88.90;;;20.75;67.92;99699.53;10284744;28;96756;-82
2022/08/18 04:20:40;;;;;;;12.73;9.60;;;21.90;90.00;;;20.84;68.69;99689.13;10279816;28;96803;-81
2022/08/18 04:26:02;;;;;;;15.02;9.43;;;22.00;90.30;;;20.93;69.10;99709.25;10251752;28;97380;-82
2022/08/18 04:31:13;;;;;;;12.48;9.20;;;22.00;90.80;;;21.06;69.77;99700.78;10265624;28;98507;-82
2022/08/18 04:36:17;;;;;;;9.98;8.93;;;22.20;91.20;;;21.23;70.13;99706.16;10240589;28;98699;-81
2022/08/18 04:41:25;;;;;;;13.50;9.05;;;22.30;91.50;;;21.40;69.93;99697.19;10268509;28;97279;-81
2022/08/18 04:46:33;;;;;;;20.27;14.57;;;22.50;91.60;;;21.58;70.14;99705.81;10270780;28;99075;-81
2022/08/18 04:53:43;;;;;;;13.32;11.05;;;22.60;91.80;;;21.79;70.21;99706.88;10264468;28;97502;-81
2022/08/18 04:57:32;;;;;;;13.85;9.07;;;22.80;92.10;;;22.01;69.88;99696.03;10269526;28;97562;-81
2022/08/18 05:02:37;;;;;;;11.25;9.02;;;23.10;92.00;;;22.23;69.41;99703.28;10265244;28;97506;-82
2022/08/18 05:07:45;;;;;;;11.10;7.95;;;23.30;92.00;;;22.42;69.05;99694.53;10270296;28;97540;-82
2022/08/18 05:12:48;;;;;;;11.30;9.13;;;23.50;91.90;;;22.63;68.88;99695.53;10284848;28;98788;-82
2022/08/18 05:17:51;;;;;;;11.85;8.13;;;23.70;91.70;;;22.83;68.07;99697.56;10276639;28;97587;-82
2022/08/18 05:22:56;;;;;;;10.82;8.20;;;23.90;91.60;;;23.03;67.76;99688.81;10282713;28;97759;-82
2022/08/18 05:27:58;;;;;;;12.82;8.80;;;24.10;91.30;;;23.23;67.33;99691.59;10269105;28;97248;-82
2022/08/18 05:33:03;;;;;;;10.57;8.00;;;24.30;90.90;;;23.42;66.95;99683.03;10273591;28;96591;-82
2022/08/18 05:38:51;;;;;;;9.32;7.05;;;24.50;90.60;;;23.64;65.73;99691.00;10267622;28;97301;-83
2022/08/18 05:43:56;;;;;;;10.88;8.07;;;24.70;90.20;;;23.82;64.73;99693.22;10283200;28;97750;-82
2022/08/18 05:48:59;;;;;;;10.90;7.00;;;24.90;89.30;;;23.98;64.01;99700.31;10285364;28;98600;-82
2022/08/18 05:59:41;;;;;;;9.98;8.20;;;25.20;87.40;;;24.34;62.72;99702.25;10280037;28;96776;-82
2022/08/18 06:04:54;;;;;;;8.52;7.07;;;25.40;86.80;;;24.51;61.91;99697.41;10258871;28;98265;-81
2022/08/18 06:09:58;;;;;;;10.25;7.60;;;25.50;85.80;;;24.70;61.40;99706.63;10262469;28;98495;-82
2022/08/18 06:15:10;;;;;;;13.30;7.53;;;25.70;84.90;;;24.92;60.63;99700.09;10282304;28;99325;-82
2022/08/18 06:20:46;;;;;;;13.32;7.55;;;26.00;84.20;;;25.13;60.09;99704.44;10270389;28;98059;-82
2022/08/18 06:26:33;;;;;;;14.77;7.63;;;26.20;83.50;;;25.30;59.44;99710.34;10285523;28;97404;-82
2022/08/18 06:31:43;;;;;;;10.30;7.32;;;26.40;82.80;;;25.44;58.14;99707.88;10281527;28;96856;-82
2022/08/18 06:37:29;;;;;;;8.95;7.28;;;26.60;81.40;;;25.62;58.03;99709.19;10277859;28;98168;-82
2022/08/18 06:42:32;;;;;;;7.65;6.85;;;26.70;80.70;;;25.79;57.36;99700.66;10267526;28;97255;-82
2022/08/18 06:48:31;;;;;;;9.70;6.95;;;26.90;80.10;;;25.95;56.04;99699.50;10271243;28;98461;-82
2022/08/18 06:54:25;;;;;;;12.90;6.95;;;27.00;78.90;;;26.11;55.71;99689.34;10251470;28;99232;-81
2022/08/18 06:59:35;;;;;;;9.20;6.93;;;27.20;77.90;;;26.27;55.27;99699.03;10262670;28;97127;-82
2022/08/18 07:04:42;;;;;;;;;;;27.40;77.00;;;26.41;54.63;99680.97;10271028;28;98714;-81
2022/08/18 07:09:47;;;;;;;8.82;7.30;;;27.50;76.60;;;26.55;54.09;99681.09;10275281;28;99742;-81
2022/08/18 07:14:56;;;;;;;7.38;6.63;;;27.70;76.00;;;26.69;54.65;99675.81;10253425;28;97135;-81
2022/08/18 07:20:23;;;;;;;13.65;7.25;;;27.80;75.50;;;26.86;53.70;99665.28;10277058;28;97392;-81
2022/08/18 07:25:41;;;;;;;7.82;7.00;;;28.00;75.00;;;27.12;52.97;99665.88;10252240;28;97892;-80
2022/08/18 07:30:44;;;;;;;12.50;7.03;;;28.20;74.40;;;27.27;52.45;99670.31;10279488;28;98531;-80
2022/08/18 07:36:09;;;;;;;38.03;8.85;;;28.30;73.70;;;27.45;52.01;99672.28;10267735;28;97291;-81
2022/08/18 07:41:25;;;;;;;342.63;31.02;;;28.50;73.30;;;27.63;51.62;99665.22;10255617;28;97400;-80
2022/08/18 07:46:44;;;;;;;22.65;8.10;;;28.70;72.70;;;27.84;50.93;99657.59;10272571;28;98900;-81
2022/08/18 07:51:58;;;;;;;23.80;8.13;;;28.90;72.00;;;28.03;50.86;99673.16;10262229;28;99523;-81
2022/08/18 07:57:33;;;;;;;8.98;6.40;;;29.10;71.50;;;28.28;49.76;99678.22;10282206;28;99379;-82
2022/08/18 08:03:15;;;;;;;9.23;6.20;;;29.30;70.60;;;28.52;48.69;99681.69;10270422;28;97591;-82
2022/08/18 08:08:49;;;;;;;38.50;8.40;;;29.50;69.70;;;28.67;48.57;99685.25;10270395;28;99149;-81
2022/08/18 08:14:25;;;;;;;55.35;9.55;;;29.70;69.00;;;28.85;47.99;99691.78;10289817;28;97450;-81
2022/08/18 08:20:26;;;;;;;14.30;5.57;;;29.90;68.10;;;29.05;47.34;99697.72;10289415;28;98138;-82
2022/08/18 08:26:15;;;;;;;47.47;8.23;;;30.10;67.70;;;29.27;47.06;99694.31;10248283;28;98521;-81
2022/08/18 08:31:48;;;;;;;18.33;6.20;;;30.40;67.10;;;29.54;46.10;99701.69;10263945;28;98648;-81
2022/08/18 08:37:01;;;;;;;8.85;6.13;;;30.60;66.30;;;29.76;44.89;99697.44;10270335;28;96576;-81
2022/08/18 08:42:14;;;;;;;79.68;10.77;;;30.80;65.00;;;29.88;44.44;99694.16;10264935;28;96748;-81
2022/08/18 08:48:13;;;;;;;60.53;10.20;;;30.90;64.20;;;29.95;43.65;99686.31;10268408;28;96867;-81
2022/08/18 08:53:34;;;;;;;107.07;12.43;;;31.00;62.80;;;30.07;42.90;99683.84;10286769;28;97374;-81
2022/08/18 08:58:57;;;;;;;10.93;6.60;;;31.20;62.40;;;30.25;42.38;99671.94;10286137;28;96613;-82
2022/08/18 09:04:48;;;;;;;8.18;5.75;;;31.30;61.60;;;30.57;41.93;99664.56;10289890;28;96619;-82
2022/08/18 09:10:56;;;;;;;101.20;10.38;;;31.60;61.20;;;30.72;41.44;99660.66;10296109;28;97655;-81
2022/08/18 09:16:20;;;;;;;45.75;8.00;;;31.80;60.00;;;30.74;41.36;99652.91;10195397;28;97280;-81
2022/08/18 09:21:45;;;;;;;12.02;6.07;;;31.80;59.60;;;30.84;40.36;99647.97;10300159;28;96699;-81
2022/08/18 09:27:15;;;;;;;73.38;9.23;;;32.00;58.80;;;31.08;40.60;99644.03;10278459;28;98374;-81
2022/08/18 09:32:17;;;;;;;8.32;5.85;;;32.10;59.00;;;31.25;40.00;99637.78;10285538;28;96673;-81
2022/08/18 09:37:36;;;;;;;157.13;15.10;;;32.40;58.40;;;31.48;39.47;99625.56;10299474;28;96628;-81
2022/08/18 09:43:30;;;;;;;13.10;5.85;;;32.60;58.00;;;31.64;39.35;99632.22;10261857;28;96649;-81
2022/08/18 09:48:38;;;;;;;45.95;7.97;;;32.70;57.50;;;31.76;37.60;99625.28;10260453;28;97531;-81
2022/08/18 09:54:13;;;;;;;78.20;11.60;;;32.90;56.10;;;31.72;37.13;99611.38;10279022;28;97096;-81
2022/08/18 09:59:31;;;;;;;16.15;6.65;;;32.90;55.20;;;31.85;37.80;99595.91;10277784;28;96566;-82
2022/08/18 10:04:49;;;;;;;11.30;5.18;;;33.00;55.70;;;32.00;37.02;99584.41;10275589;28;98473;-81
2022/08/18 10:10:07;;;;;;;93.97;11.05;;;33.20;55.00;;;32.18;35.81;99569.50;10287733;28;96749;-82
2022/08/18 10:15:45;;;;;;;43.35;7.20;;;33.40;53.90;;;32.33;36.49;99570.09;10286517;28;98417;-83
2022/08/18 10:21:17;;;;;;;37.80;7.20;;;33.40;54.10;;;32.52;35.59;99565.06;10264236;28;96779;-81
2022/08/18 10:26:33;;;;;;;45.13;6.75;;;33.70;53.70;;;32.97;35.31;99561.81;10278794;28;96955;-82
2022/08/18 10:32:00;;;;;;;10.35;4.45;;;34.10;53.10;;;33.46;33.21;99562.16;10277846;28;98353;-82
2022/08/18 10:37:38;;;;;;;34.97;6.38;;;34.50;51.80;;;33.79;32.32;99560.25;10277588;28;97739;-81
2022/08/18 10:43:29;;;;;;;12.43;5.27;;;34.80;50.90;;;33.92;32.16;99572.16;10261894;28;99331;-82
2022/08/18 10:49:11;;;;;;;11.30;4.65;;;35.00;50.40;;;34.00;31.89;99568.50;10282807;28;97556;-81
2022/08/18 10:54:54;;;;;;;72.93;9.02;;;35.20;49.80;;;33.70;31.04;99548.50;10285889;28;97489;-82
2022/08/18 11:00:13;;;;;;;73.43;8.15;;;35.00;48.80;;;33.73;29.88;99550.59;10265533;28;97407;-81
2022/08/18 11:05:24;;;;;;;16.42;4.55;;;35.00;47.90;;;33.94;30.91;99549.78;10272349;28;96822;-82
2022/08/18 11:10:49;;;;;;;6.45;3.55;;;35.10;48.00;;;34.27;29.19;99547.00;10275079;28;98707;-82
2022/08/18 11:16:52;;;;;;;4.85;3.78;;;35.40;47.10;;;34.70;29.07;99531.91;10250674;28;98438;-82
2022/08/18 11:21:56;;;;;;;5.30;3.20;;;35.70;46.90;;;35.03;28.61;99527.09;10269790;28;98584;-82
2022/08/18 11:27:16;;;;;;;5.18;3.63;;;36.10;46.40;;;35.00;27.61;99519.47;10285121;28;98431;-82
2022/08/18 11:32:36;;;;;;;6.20;3.42;;;36.20;45.50;;;35.21;28.12;99511.06;10270371;28;97471;-82
2022/08/18 11:38:10;;;;;;;7.45;3.22;;;36.40;45.60;;;35.47;28.31;99488.53;10280748;28;98566;-82
2022/08/18 11:43:30;;;;;;;6.90;3.33;;;36.60;45.80;;;35.53;26.94;99494.63;10257087;28;97543;-82
2022/08/18 11:48:49;;;;;;;6.35;3.22;;;36.80;44.80;;;35.20;27.71;99487.31;10282070;28;98655;-82
2022/08/18 11:54:03;;;;;;;4.95;3.28;;;36.60;44.50;;;35.32;26.75;99473.47;10268762;28;96936;-82
2022/08/18 11:59:34;;;;;;;4.57;3.10;;;36.60;44.10;;;35.52;27.24;99468.97;10277446;28;98546;-83
2022/08/18 12:05:02;;;;;;;5.22;3.47;;;36.80;44.30;;;35.83;26.43;99473.75;10283495;28;98374;-82
2022/08/18 12:10:27;;;;;;;4.93;3.60;;;37.10;44.00;;;35.71;26.25;99460.00;10263919;28;98428;-82
2022/08/18 12:15:34;;;;;;;4.68;3.60;;;37.30;43.10;;;35.66;26.25;99460.25;10268842;28;97313;-82
2022/08/18 12:20:48;;;;;;;3.55;3.05;;;37.20;42.80;;;35.57;25.77;99454.91;10289541;28;96737;-82
2022/08/18 12:25:53;;;;;;;6.50;3.13;;;37.30;42.30;;;35.96;25.75;99443.28;10301267;28;97034;-83
2022/08/18 12:30:56;;;;;;;3.40;2.97;;;37.60;42.40;;;36.36;25.14;99430.06;10288311;28;97682;-82
2022/08/18 12:36:01;;;;;;;4.50;3.00;;;38.10;42.00;;;36.69;24.81;99418.59;10282170;28;97247;-83
2022/08/18 12:41:10;;;;;;;7.15;3.00;;;38.60;41.80;;;37.00;23.85;99424.41;10280499;28;96943;-83
2022/08/18 12:46:13;;;;;;;3.78;2.78;;;38.90;40.50;;;37.36;23.44;99426.78;10282753;28;97339;-83
2022/08/18 12:51:17;;;;;;;6.18;2.95;;;39.20;40.20;;;37.09;22.29;99438.88;10263536;28;97324;-82
2022/08/18 12:56:29;;;;;;;5.32;2.63;;;39.20;38.70;;;37.10;23.09;99443.22;10266043;28;97125;-83
2022/08/18 13:01:37;;;;;;;3.20;2.70;;;39.00;39.40;;;37.29;23.19;99443.22;10277681;28;97243;-83
2022/08/18 13:06:52;;;;;;;4.40;2.90;;;39.10;39.80;;;37.21;22.98;99444.25;10293838;28;96636;-83
2022/08/18 13:12:05;;;;;;;5.05;2.78;;;38.90;39.70;;;37.37;23.46;99455.31;10247526;28;96641;-83
2022/08/18 13:17:16;;;;;;;5.00;2.42;;;38.80;40.00;;;37.42;22.85;99457.75;10265137;28;96805;-83
2022/08/18 13:22:39;;;;;;;7.30;3.40;;;38.80;39.90;;;37.22;22.73;99460.50;10273429;28;96672;-83
2022/08/18 13:27:42;;;;;;;4.47;2.95;;;38.60;39.60;;;36.93;22.70;99463.84;10265317;28;98933;-83
2022/08/18 13:32:47;;;;;;;3.72;3.25;;;38.30;39.70;;;36.66;23.38;99457.28;10290200;28;96626;-83
2022/08/18 13:38:06;;;;;;;5.30;3.50;;;38.10;40.00;;;36.44;23.92;99447.66;10289978;28;98432;-82
2022/08/18 13:43:34;;;;;;;7.20;3.10;;;37.80;40.30;;;36.34;23.89;99442.66;10285263;28;98478;-82
2022/08/18 13:48:39;;;;;;;6.18;3.55;;;37.70;40.00;;;36.06;23.66;99429.75;10303956;28;97819;-82
2022/08/18 13:53:43;;;;;;;7.85;3.75;;;37.40;40.30;;;36.08;24.17;99434.91;10282301;28;96765;-82
2022/08/18 13:59:06;;;;;;;5.15;3.40;;;37.30;40.80;;;36.14;24.49;99450.88;10262981;28;98849;-82
2022/08/18 14:04:11;;;;;;;4.57;2.90;;;37.30;40.90;;;36.41;24.55;99448.41;10286350;28;98381;-82
2022/08/18 14:09:17;;;;;;;5.03;3.13;;;37.50;41.00;;;36.72;24.40;99433.69;10249088;28;96797;-82
2022/08/18 14:14:30;;;;;;;6.13;3.30;;;37.80;41.00;;;36.89;23.79;99440.81;10285286;28;98375;-83
2022/08/18 14:30:24;;;;;;;6.07;3.20;;;38.20;40.10;;;36.80;23.17;99451.25;10275751;28;99579;-82
2022/08/18 14:35:26;;;;;;;4.57;3.28;;;38.00;40.10;;;36.57;23.54;99451.13;10291863;28;97693;-82
2022/08/18 14:40:50;;;;;;;5.10;3.17;;;37.90;40.20;;;36.83;23.47;99462.41;10265338;28;97275;-82
2022/08/18 14:45:54;;;;;;;5.93;2.90;;;37.90;40.30;;;36.93;22.95;99453.56;10272317;28;97723;-83
2022/08/18 14:51:00;;;;;;;3.83;3.17;;;38.10;40.10;;;36.88;22.99;99462.16;10290476;28;96748;-83
2022/08/18 14:56:05;;;;;;;6.25;3.28;;;38.10;39.80;;;37.12;23.10;99449.19;10272614;28;96722;-83
2022/08/18 15:01:12;;;;;;;6.63;3.00;;;38.20;39.80;;;37.34;22.42;99451.28;10290642;28;96709;-83
2022/08/18 15:06:17;;;;;;;5.43;3.17;;;38.30;40.00;;;37.53;22.31;99446.88;10270938;28;98760;-83
2022/08/18 15:11:29;;;;;;;5.70;2.88;;;38.50;39.10;;;37.50;22.49;99438.16;10288960;28;96759;-83
2022/08/18 15:16:35;;;;;;;6.10;3.00;;;38.50;39.30;;;37.63;22.33;99424.91;10282066;28;97175;-83
2022/08/18 15:27:04;;;;;;;5.55;3.08;;;38.70;39.10;;;37.74;22.21;99441.75;10262540;28;97441;-83
2022/08/18 15:32:15;;;;;;;9.23;3.42;;;38.80;39.00;;;37.78;22.19;99445.38;10263292;28;98811;-82
2022/08/18 15:37:19;;;;;;;5.57;3.03;;;38.90;39.00;;;37.78;22.25;99439.81;10241664;28;97076;-83
2022/08/18 15:42:26;;;;;;;6.32;3.30;;;38.80;39.10;;;37.66;22.43;99451.88;10279736;28;97013;-83
2022/08/18 15:47:32;;;;;;;4.45;2.60;;;38.70;39.30;;;37.67;22.15;99455.50;10260069;28;98511;-84
2022/08/18 15:52:35;;;;;;;5.00;2.90;;;38.60;39.10;;;37.44;22.15;99452.66;10263364;28;97184;-83
2022/08/18 15:57:43;;;;;;;7.28;2.83;;;38.50;38.90;;;37.38;22.60;99440.28;10282856;28;97644;-82
2022/08/18 16:02:56;;;;;;;5.03;2.42;;;38.30;39.10;;;37.26;21.94;99432.09;10251867;28;99037;-84
2022/08/18 16:08:00;;;;;;;6.13;2.45;;;38.30;39.10;;;37.18;22.60;99436.66;10267301;28;96861;-83
2022/08/18 16:13:05;;;;;;;12.65;3.10;;;38.20;39.30;;;37.05;22.41;99432.44;10265799;28;96837;-83
2022/08/18 16:18:09;;;;;;;5.53;2.50;;;38.10;39.20;;;36.88;22.05;99440.00;10284968;28;97499;-83
2022/08/18 16:23:12;;;;;;;4.68;2.05;;;37.90;39.10;;;36.65;22.56;99433.53;10247297;28;99122;-83
2022/08/18 16:28:15;;;;;;;7.32;2.20;;;37.80;39.40;;;36.44;23.09;99447.66;10278480;28;96864;-82
2022/08/18 16:33:18;;;;;;;5.43;2.30;;;37.50;39.40;;;36.17;23.06;99441.06;10273486;28;98551;-82
2022/08/18 16:38:22;;;;;;;5.53;2.22;;;37.20;39.20;;;35.95;22.90;99438.94;10271967;28;97549;-82
2022/08/18 16:43:26;;;;;;;5.97;2.08;;;37.00;39.20;;;35.67;23.71;99435.00;10284462;28;96949;-82
2022/08/18 16:48:29;;;;;;;6.75;2.35;;;36.80;40.80;;;35.45;23.86;99440.31;10277663;28;97199;-81
2022/08/18 16:53:32;;;;;;;10.38;2.53;;;36.50;40.30;;;35.19;25.66;99426.94;10266543;28;98323;-82
2022/08/18 17:04:07;;;;;;;4.32;2.30;;;36.00;42.50;;;34.67;26.89;99420.28;10270600;28;96886;-82
2022/08/18 17:09:18;;;;;;;10.43;2.80;;;35.70;43.20;;;34.32;27.87;99406.94;10267143;28;97615;-81
2022/08/18 17:14:26;;;;;;;6.72;2.90;;;35.40;44.00;;;33.96;28.33;99399.47;10276191;28;96697;-81
2022/08/18 17:19:33;;;;;;;6.93;3.25;;;35.00;44.60;;;33.60;29.34;99393.88;10266449;28;98467;-82
2022/08/18 17:24:36;;;;;;;8.75;3.63;;;34.60;45.10;;;33.19;29.75;99404.59;10251429;28;97137;-82
2022/08/18 17:29:53;;;;;;;10.95;3.70;;;34.30;45.70;;;32.78;30.62;99402.66;10270963;28;97999;-82
2022/08/18 17:35:41;;;;;;;5.70;2.90;;;33.80;46.10;;;32.38;31.11;99405.00;10272383;28;96623;-82
2022/08/18 17:40:52;;;;;;;7.57;3.15;;;33.30;46.30;;;32.02;30.60;99384.28;10280933;28;96720;-81
2022/08/18 17:46:03;;;;;;;9.43;2.85;;;33.00;46.10;;;31.68;31.25;99353.06;10275959;28;96565;-82
2022/08/18 17:51:33;;;;;;;6.95;2.80;;;32.70;46.60;;;31.38;32.09;99370.59;10271555;28;97092;-82
2022/08/18 17:56:48;;;;;;;7.05;2.72;;;32.50;47.10;;;31.07;32.64;99381.75;10269782;28;98408;-82
2022/08/18 18:02:18;;;;;;;4.53;2.42;;;32.10;47.30;;;30.72;33.02;99405.59;10273586;28;98100;-82
2022/08/18 18:07:42;;;;;;;7.53;2.40;;;31.70;47.40;;;30.49;32.60;99415.84;10269290;28;96797;-81
2022/08/18 18:12:45;;;;;;;7.65;2.38;;;31.50;47.40;;;30.34;32.56;99406.94;10275962;28;97287;-82
2022/08/18 18:17:48;;;;;;;5.53;2.45;;;31.30;47.40;;;30.18;33.20;99413.19;10271012;28;97313;-82
2022/08/18 18:22:51;;;;;;;4.65;2.15;;;31.20;47.80;;;29.98;33.39;99423.53;10268773;28;98851;-83
2022/08/18 18:27:54;;;;;;;9.50;2.95;;;31.00;48.30;;;29.76;34.50;99424.41;10252591;28;97612;-83
2022/08/18 18:33:12;;;;;;;10.00;2.60;;;30.80;48.80;;;29.52;34.96;99434.88;10269643;28;98560;-83
2022/08/18 18:38:36;;;;;;;7.30;2.38;;;30.50;49.40;;;29.28;35.51;99448.84;10291596;28;98016;-83
2022/08/18 18:43:45;;;;;;;5.85;2.38;;;30.30;49.50;;;29.07;35.66;99464.91;10290063;28;98585;-84
2022/08/18 18:49:25;;;;;;;8.00;3.17;;;30.10;49.90;;;28.91;36.68;99461.69;10284741;28;98495;-83
2022/08/18 18:54:43;;;;;;;6.38;2.65;;;30.00;50.40;;;28.73;36.70;99460.72;10263859;28;96888;-83
2022/08/18 19:00:34;;;;;;;6.00;2.80;;;29.80;50.90;;;28.56;37.01;99463.25;10286721;28;96717;-85
2022/08/18 19:05:44;;;;;;;4.60;2.30;;;29.60;51.60;;;28.39;37.49;99447.47;10279115;28;97649;-82
2022/08/18 19:11:10;;;;;;;7.25;2.83;;;29.40;51.30;;;28.22;37.54;99460.88;10289077;28;97796;-84
2022/08/18 19:16:23;;;;;;;7.07;2.53;;;29.20;51.60;;;28.13;37.70;99451.75;10298334;28;96986;-83
2022/08/18 19:21:29;;;;;;;5.60;2.15;;;29.10;51.30;;;28.04;37.74;99453.59;10286054;28;97921;-83
2022/08/18 19:26:58;;;;;;;5.68;2.40;;;29.10;51.50;;;27.87;38.25;99452.22;10273715;28;96884;-83
2022/08/18 19:32:18;;;;;;;6.18;2.67;;;29.00;51.90;;;27.75;38.89;99465.53;10294704;28;96952;-84
2022/08/18 19:37:32;;;;;;;7.57;3.08;;;28.80;52.50;;;27.63;39.13;99451.53;10301735;28;99356;-85
2022/08/18 19:42:38;;;;;;;6.57;3.35;;;28.60;52.70;;;27.55;39.39;99452.22;10273778;28;96966;-82
2022/08/18 19:47:49;;;;;;;9.35;2.88;;;28.60;53.00;;;27.45;40.06;99454.00;10288647;28;97117;-82
2022/08/18 19:53:14;;;;;;;9.38;3.13;;;28.40;53.40;;;27.34;40.52;99451.72;10281001;28;98179;-83
2022/08/18 19:58:58;;;;;;;5.57;3.45;;;28.30;53.70;;;27.29;40.46;99454.53;10276772;28;98743;-84
2022/08/18 20:04:58;;;;;;;6.45;3.20;;;28.30;53.90;;;27.22;40.87;99460.34;10297235;28;96766;-84
2022/08/18 20:10:26;;;;;;;6.43;3.75;;;28.20;54.10;;;27.13;40.83;99462.94;10270650;28;96947;-84
2022/08/18 20:15:29;;;;;;;5.53;3.50;;;28.10;54.10;;;27.09;41.17;99472.00;10288777;28;97840;-83
2022/08/18 20:20:36;;;;;;;5.53;3.22;;;28.10;54.50;;;27.01;41.46;99469.91;10282537;28;97677;-84
2022/08/18 20:25:43;;;;;;;10.30;4.45;;;28.00;54.80;;;26.92;41.76;99467.84;10267768;28;97246;-84
2022/08/18 20:31:15;;;;;;;10.38;4.47;;;27.90;55.10;;;26.78;42.42;99472.41;10263815;28;96844;-84
2022/08/18 20:36:35;;;;;;;4.75;3.97;;;27.80;55.50;;;26.67;42.55;99466.25;10270329;28;97874;-85
2022/08/18 20:41:44;;;;;;;7.15;3.95;;;27.60;55.80;;;26.53;43.02;99464.53;10280233;28;97053;-84
2022/08/18 20:47:14;;;;;;;8.27;4.68;;;27.50;56.40;;;26.44;43.53;99475.25;10274239;28;99505;-83
2022/08/18 20:52:54;;;;;;;6.65;4.32;;;27.40;56.70;;;26.27;44.22;99475.72;10263736;28;100052;-84
2022/08/18 20:58:04;;;;;;;13.20;5.60;;;27.30;57.40;;;26.18;44.81;99485.59;10261598;28;97286;-84
2022/08/18 21:03:21;;;;;;;4.47;4.03;;;27.20;57.70;;;26.08;45.19;99485.69;10280419;28;98772;-84
2022/08/18 21:08:31;;;;;;;22.42;14.90;;;27.10;58.20;;;26.00;45.68;99505.38;10284486;28;98420;-84
2022/08/18 21:13:39;;;;;;;12.30;7.93;;;27.00;58.50;;;25.92;46.16;99514.97;10264725;28;98797;-85
2022/08/18 21:18:50;;;;;;;8.63;6.97;;;26.90;59.00;;;25.83;46.36;99531.09;10278059;28;99137;-84
2022/08/18 21:23:57;;;;;;;14.27;10.73;;;26.90;59.20;;;25.82;46.76;99542.28;10275710;28;98883;-84
2022/08/18 21:29:07;;;;;;;10.38;6.05;;;26.80;59.50;;;25.81;46.62;99546.91;10279274;28;98124;-84
2022/08/18 21:34:38;;;;;;;12.43;9.15;;;26.80;59.50;;;25.79;47.09;99561.88;10268253;28;98911;-83
2022/08/18 21:39:54;;;;;;;10.10;6.88;;;26.80;60.00;;;25.74;47.26;99556.50;10280110;28;98159;-83
2022/08/18 21:44:58;;;;;;;16.13;11.00;;;26.70;60.00;;;25.69;47.25;99554.59;10270077;28;98421;-83
2022/08/18 21:50:13;;;;;;;12.57;9.57;;;26.70;60.20;;;25.64;47.87;99562.78;10285255;28;99485;-83
2022/08/18 21:55:32;;;;;;;10.25;8.10;;;26.70;60.70;;;25.58;48.06;99569.34;10272818;28;97345;-84
2022/08/18 22:00:44;;;;;;;7.32;6.07;;;26.60;60.90;;;25.48;48.30;99575.66;10293856;28;96799;-84
2022/08/18 22:06:34;;;;;;;8.30;5.38;;;26.50;61.20;;;25.42;48.52;99593.09;10276502;28;96623;-84
2022/08/18 22:17:31;;;;;;;8.85;5.65;;;26.40;61.70;;;25.33;49.20;99601.03;10268539;28;97076;-84
2022/08/18 22:27:57;;;;;;;7.45;5.43;;;26.30;62.50;;;25.21;49.67;99602.47;10281323;28;97769;-84
2022/08/18 22:33:00;;;;;;;6.43;5.70;;;26.20;62.50;;;25.16;49.90;99616.88;10284904;28;98267;-83